sensor_id;sensor_type;location;lat;lon;timestamp;temperature;humidity
40756;DHT22;26461;45.630;9.418;2023-02-01T00:01:32;4.80;99.90
40756;DHT22;26461;45.630;9.418;2023-02-01T00:04:42;4.80;99.90
40756;DHT22;26461;45.630;9.418;2023-02-01T00:07:52;4.80;99.90
40756;DHT22;26461;45.630;9.418;2023-02-01T00:11:07;4.80;99.90
40756;DHT22;26461;45.630;9.418;2023-02-01T00:14:18;4.90;99.90
40756;DHT22;26461;45.630;9.418;2023-02-01T00:17:28;4.90;99.90
40756;DHT22;26461;45.630;9.418;2023-02-01T00:20:32;4.80;99.90
40756;DHT22;26461;45.630;9.418;2023-02-01T00:23:42;4.80;99.90
40756;DHT22;26461;45.630;9.418;2023-02-01T00:26:52;4.80;99.90
40756;DHT22;26461;45.630;9.418;2023-02-01T00:30:03;4.80;99.90
40756;DHT22;26461;45.630;9.418;2023-02-01T00:33:13;4.80;99.90
40756;DHT22;26461;45.630;9.418;2023-02-01T00:36:23;4.80;99.90
40756;DHT22;26461;45.630;9.418;2023-02-01T00:39:33;4.80;99.90
40756;DHT22;26461;45.630;9.418;2023-02-01T00:42:38;4.80;99.90
40756;DHT22;26461;45.630;9.418;2023-02-01T00:45:48;4.80;99.90
40756;DHT22;26461;45.630;9.418;2023-02-01T00:48:58;4.90;99.90
40756;DHT22;26461;45.630;9.418;2023-02-01T00:52:07;5.00;99.90
40756;DHT22;26461;45.630;9.418;2023-02-01T00:55:17;5.10;99.60
40756;DHT22;26461;45.630;9.418;2023-02-01T00:58:28;5.20;99.30
40756;DHT22;26461;45.630;9.418;2023-02-01T01:01:38;5.30;99.60
40756;DHT22;26461;45.630;9.418;2023-02-01T01:04:47;5.30;99.70
40756;DHT22;26461;45.630;9.418;2023-02-01T01:07:57;5.30;99.70
40756;DHT22;26461;45.630;9.418;2023-02-01T01:11:17;5.30;99.30
40756;DHT22;26461;45.630;9.418;2023-02-01T01:14:27;5.40;99.50
40756;DHT22;26461;45.630;9.418;2023-02-01T01:17:37;5.50;99.80
40756;DHT22;26461;45.630;9.418;2023-02-01T01:20:47;5.30;99.70
40756;DHT22;26461;45.630;9.418;2023-02-01T01:23:57;5.30;99.70
40756;DHT22;26461;45.630;9.418;2023-02-01T01:27:02;5.30;99.60
40756;DHT22;26461;45.630;9.418;2023-02-01T01:30:12;5.30;99.60
40756;DHT22;26461;45.630;9.418;2023-02-01T01:33:22;5.30;99.50
40756;DHT22;26461;45.630;9.418;2023-02-01T01:36:31;5.30;99.70
40756;DHT22;26461;45.630;9.418;2023-02-01T01:39:41;5.40;99.20
40756;DHT22;26461;45.630;9.418;2023-02-01T01:42:51;5.40;99.00
40756;DHT22;26461;45.630;9.418;2023-02-01T01:46:04;5.40;99.00
40756;DHT22;26461;45.630;9.418;2023-02-01T01:49:17;5.50;98.80
40756;DHT22;26461;45.630;9.418;2023-02-01T01:52:30;5.50;98.60
40756;DHT22;26461;45.630;9.418;2023-02-01T01:55:43;5.50;98.40
40756;DHT22;26461;45.630;9.418;2023-02-01T01:58:54;5.60;97.60
40756;DHT22;26461;45.630;9.418;2023-02-01T02:02:05;5.70;97.30
40756;DHT22;26461;45.630;9.418;2023-02-01T02:05:16;5.70;97.30
40756;DHT22;26461;45.630;9.418;2023-02-01T02:08:28;5.70;97.10
40756;DHT22;26461;45.630;9.418;2023-02-01T02:11:38;5.80;97.00
40756;DHT22;26461;45.630;9.418;2023-02-01T02:14:43;5.80;97.20
40756;DHT22;26461;45.630;9.418;2023-02-01T02:24:41;5.70;97.00
40756;DHT22;26461;45.630;9.418;2023-02-01T02:49:28;5.30;97.60
40756;DHT22;26461;45.630;9.418;2023-02-01T02:52:46;5.30;97.60
40756;DHT22;26461;45.630;9.418;2023-02-01T02:56:18;5.30;97.60
40756;DHT22;26461;45.630;9.418;2023-02-01T02:59:49;5.30;97.50
40756;DHT22;26461;45.630;9.418;2023-02-01T03:03:17;5.30;97.40
40756;DHT22;26461;45.630;9.418;2023-02-01T03:06:46;5.30;97.30
40756;DHT22;26461;45.630;9.418;2023-02-01T03:09:56;5.30;97.20
40756;DHT22;26461;45.630;9.418;2023-02-01T03:13:22;5.40;97.10
40756;DHT22;26461;45.630;9.418;2023-02-01T03:16:43;5.40;97.00
40756;DHT22;26461;45.630;9.418;2023-02-01T03:19:58;5.30;96.80
40756;DHT22;26461;45.630;9.418;2023-02-01T03:23:13;5.40;96.80
40756;DHT22;26461;45.630;9.418;2023-02-01T03:26:27;5.40;96.80
40756;DHT22;26461;45.630;9.418;2023-02-01T03:33:00;5.40;96.60
40756;DHT22;26461;45.630;9.418;2023-02-01T03:36:21;5.40;96.50
40756;DHT22;26461;45.630;9.418;2023-02-01T03:39:48;5.30;96.60
40756;DHT22;26461;45.630;9.418;2023-02-01T03:43:01;5.30;96.70
40756;DHT22;26461;45.630;9.418;2023-02-01T03:46:18;5.20;96.70
40756;DHT22;26461;45.630;9.418;2023-02-01T03:52:40;5.10;96.90
40756;DHT22;26461;45.630;9.418;2023-02-01T03:55:53;5.20;96.90
40756;DHT22;26461;45.630;9.418;2023-02-01T03:59:04;5.10;96.90
40756;DHT22;26461;45.630;9.418;2023-02-01T04:02:14;5.10;96.80
40756;DHT22;26461;45.630;9.418;2023-02-01T04:05:24;5.10;96.80
40756;DHT22;26461;45.630;9.418;2023-02-01T04:08:40;5.10;96.70
40756;DHT22;26461;45.630;9.418;2023-02-01T04:11:50;5.10;95.70
40756;DHT22;26461;45.630;9.418;2023-02-01T04:14:59;5.10;96.10
40756;DHT22;26461;45.630;9.418;2023-02-01T04:18:09;5.20;96.10
40756;DHT22;26461;45.630;9.418;2023-02-01T04:21:19;5.20;96.20
40756;DHT22;26461;45.630;9.418;2023-02-01T04:24:29;5.20;95.70
40756;DHT22;26461;45.630;9.418;2023-02-01T04:27:35;5.30;95.60
40756;DHT22;26461;45.630;9.418;2023-02-01T04:30:39;5.30;95.50
40756;DHT22;26461;45.630;9.418;2023-02-01T04:33:49;5.30;94.70
40756;DHT22;26461;45.630;9.418;2023-02-01T04:36:58;5.30;94.80
40756;DHT22;26461;45.630;9.418;2023-02-01T04:40:09;5.30;94.80
40756;DHT22;26461;45.630;9.418;2023-02-01T04:43:19;5.30;94.90
40756;DHT22;26461;45.630;9.418;2023-02-01T04:46:29;5.30;95.00
40756;DHT22;26461;45.630;9.418;2023-02-01T04:49:39;5.30;95.10
40756;DHT22;26461;45.630;9.418;2023-02-01T04:52:48;5.30;95.10
40756;DHT22;26461;45.630;9.418;2023-02-01T04:55:58;5.30;95.20
40756;DHT22;26461;45.630;9.418;2023-02-01T04:59:11;5.40;95.10
40756;DHT22;26461;45.630;9.418;2023-02-01T05:02:21;5.40;95.00
40756;DHT22;26461;45.630;9.418;2023-02-01T05:05:31;5.40;95.20
40756;DHT22;26461;45.630;9.418;2023-02-01T05:08:41;5.50;95.20
40756;DHT22;26461;45.630;9.418;2023-02-01T05:11:51;5.50;95.00
40756;DHT22;26461;45.630;9.418;2023-02-01T05:15:19;5.50;95.00
40756;DHT22;26461;45.630;9.418;2023-02-01T05:18:29;5.50;94.90
40756;DHT22;26461;45.630;9.418;2023-02-01T05:21:40;5.50;94.70
40756;DHT22;26461;45.630;9.418;2023-02-01T05:24:50;5.50;95.10
40756;DHT22;26461;45.630;9.418;2023-02-01T05:27:59;5.50;94.70
40756;DHT22;26461;45.630;9.418;2023-02-01T05:31:10;5.50;94.80
40756;DHT22;26461;45.630;9.418;2023-02-01T05:34:20;5.50;94.90
40756;DHT22;26461;45.630;9.418;2023-02-01T05:37:31;5.60;95.00
40756;DHT22;26461;45.630;9.418;2023-02-01T05:40:41;5.60;95.20
40756;DHT22;26461;45.630;9.418;2023-02-01T05:43:51;5.60;95.40
40756;DHT22;26461;45.630;9.418;2023-02-01T05:46:56;5.60;95.70
40756;DHT22;26461;45.630;9.418;2023-02-01T05:50:07;5.70;96.00
40756;DHT22;26461;45.630;9.418;2023-02-01T05:53:17;5.70;96.40
40756;DHT22;26461;45.630;9.418;2023-02-01T05:56:27;5.70;96.70
40756;DHT22;26461;45.630;9.418;2023-02-01T05:59:36;5.70;97.40
40756;DHT22;26461;45.630;9.418;2023-02-01T06:02:50;5.70;97.50
40756;DHT22;26461;45.630;9.418;2023-02-01T06:06:00;5.80;97.60
40756;DHT22;26461;45.630;9.418;2023-02-01T06:09:05;5.80;97.80
40756;DHT22;26461;45.630;9.418;2023-02-01T06:12:15;5.80;98.20
40756;DHT22;26461;45.630;9.418;2023-02-01T06:15:25;5.80;98.70
40756;DHT22;26461;45.630;9.418;2023-02-01T06:18:35;5.80;99.00
40756;DHT22;26461;45.630;9.418;2023-02-01T06:21:45;5.90;98.80
40756;DHT22;26461;45.630;9.418;2023-02-01T06:24:55;5.90;98.70
40756;DHT22;26461;45.630;9.418;2023-02-01T06:28:05;5.80;98.60
40756;DHT22;26461;45.630;9.418;2023-02-01T06:31:15;5.80;98.80
40756;DHT22;26461;45.630;9.418;2023-02-01T06:34:21;5.70;98.80
40756;DHT22;26461;45.630;9.418;2023-02-01T06:37:32;5.70;99.00
40756;DHT22;26461;45.630;9.418;2023-02-01T06:40:42;5.70;99.10
40756;DHT22;26461;45.630;9.418;2023-02-01T06:43:53;5.70;99.30
40756;DHT22;26461;45.630;9.418;2023-02-01T06:47:03;5.60;99.40
40756;DHT22;26461;45.630;9.418;2023-02-01T06:50:13;5.60;99.20
40756;DHT22;26461;45.630;9.418;2023-02-01T06:53:23;5.60;99.00
40756;DHT22;26461;45.630;9.418;2023-02-01T06:56:33;5.60;98.80
40756;DHT22;26461;45.630;9.418;2023-02-01T06:59:43;5.60;98.80
40756;DHT22;26461;45.630;9.418;2023-02-01T07:02:53;5.60;98.80
40756;DHT22;26461;45.630;9.418;2023-02-01T07:06:04;5.60;98.80
40756;DHT22;26461;45.630;9.418;2023-02-01T07:09:14;5.60;98.60
40756;DHT22;26461;45.630;9.418;2023-02-01T07:12:24;5.50;98.30
40756;DHT22;26461;45.630;9.418;2023-02-01T07:15:33;5.50;98.20
40756;DHT22;26461;45.630;9.418;2023-02-01T07:18:44;5.50;98.10
40756;DHT22;26461;45.630;9.418;2023-02-01T07:21:54;5.50;98.10
40756;DHT22;26461;45.630;9.418;2023-02-01T07:25:04;5.50;98.20
40756;DHT22;26461;45.630;9.418;2023-02-01T07:28:15;5.50;98.30
40756;DHT22;26461;45.630;9.418;2023-02-01T07:31:25;5.50;98.40
40756;DHT22;26461;45.630;9.418;2023-02-01T07:34:35;5.50;98.40
40756;DHT22;26461;45.630;9.418;2023-02-01T07:37:46;5.60;98.50
40756;DHT22;26461;45.630;9.418;2023-02-01T07:41:01;5.60;98.50
40756;DHT22;26461;45.630;9.418;2023-02-01T07:44:11;5.60;98.40
40756;DHT22;26461;45.630;9.418;2023-02-01T07:47:21;5.70;98.40
40756;DHT22;26461;45.630;9.418;2023-02-01T07:50:30;5.70;98.40
40756;DHT22;26461;45.630;9.418;2023-02-01T07:53:41;5.80;98.50
40756;DHT22;26461;45.630;9.418;2023-02-01T07:56:51;5.80;98.60
40756;DHT22;26461;45.630;9.418;2023-02-01T08:00:04;5.90;98.60
40756;DHT22;26461;45.630;9.418;2023-02-01T08:03:35;5.90;98.50
40756;DHT22;26461;45.630;9.418;2023-02-01T08:06:45;5.90;98.40
40756;DHT22;26461;45.630;9.418;2023-02-01T08:09:54;6.00;98.40
40756;DHT22;26461;45.630;9.418;2023-02-01T08:13:04;6.00;98.20
40756;DHT22;26461;45.630;9.418;2023-02-01T08:16:16;6.10;98.20
40756;DHT22;26461;45.630;9.418;2023-02-01T08:19:22;6.20;98.30
40756;DHT22;26461;45.630;9.418;2023-02-01T08:22:32;6.20;98.40
40756;DHT22;26461;45.630;9.418;2023-02-01T08:25:42;6.40;98.50
40756;DHT22;26461;45.630;9.418;2023-02-01T08:28:58;6.40;98.50
40756;DHT22;26461;45.630;9.418;2023-02-01T08:32:09;6.50;98.60
40756;DHT22;26461;45.630;9.418;2023-02-01T08:35:13;6.60;98.50
40756;DHT22;26461;45.630;9.418;2023-02-01T08:38:23;6.70;98.60
40756;DHT22;26461;45.630;9.418;2023-02-01T08:41:33;6.70;98.70
40756;DHT22;26461;45.630;9.418;2023-02-01T08:44:43;6.80;98.90
40756;DHT22;26461;45.630;9.418;2023-02-01T08:47:53;6.90;99.30
40756;DHT22;26461;45.630;9.418;2023-02-01T08:51:05;7.10;99.50
40756;DHT22;26461;45.630;9.418;2023-02-01T08:54:15;7.10;99.30
40756;DHT22;26461;45.630;9.418;2023-02-01T08:57:25;7.20;99.10
40756;DHT22;26461;45.630;9.418;2023-02-01T09:00:35;7.30;98.90
40756;DHT22;26461;45.630;9.418;2023-02-01T09:03:45;7.40;98.80
40756;DHT22;26461;45.630;9.418;2023-02-01T09:06:55;7.50;98.90
40756;DHT22;26461;45.630;9.418;2023-02-01T09:10:05;7.50;99.50
40756;DHT22;26461;45.630;9.418;2023-02-01T09:13:16;7.60;99.10
40756;DHT22;26461;45.630;9.418;2023-02-01T09:16:26;7.60;99.20
40756;DHT22;26461;45.630;9.418;2023-02-01T09:19:36;7.60;99.30
40756;DHT22;26461;45.630;9.418;2023-02-01T09:22:41;7.70;99.30
40756;DHT22;26461;45.630;9.418;2023-02-01T09:25:51;7.70;99.10
40756;DHT22;26461;45.630;9.418;2023-02-01T09:29:03;7.80;99.20
40756;DHT22;26461;45.630;9.418;2023-02-01T09:32:15;7.70;99.20
40756;DHT22;26461;45.630;9.418;2023-02-01T09:35:25;7.80;99.00
40756;DHT22;26461;45.630;9.418;2023-02-01T09:38:35;7.80;98.60
40756;DHT22;26461;45.630;9.418;2023-02-01T09:45:07;8.00;98.40
40756;DHT22;26461;45.630;9.418;2023-02-01T09:48:23;8.00;98.30
40756;DHT22;26461;45.630;9.418;2023-02-01T09:51:38;8.10;98.10
40756;DHT22;26461;45.630;9.418;2023-02-01T09:55:00;8.10;95.20
40756;DHT22;26461;45.630;9.418;2023-02-01T09:58:19;8.40;94.70
40756;DHT22;26461;45.630;9.418;2023-02-01T10:01:32;8.50;94.60
40756;DHT22;26461;45.630;9.418;2023-02-01T10:04:42;8.70;94.90
40756;DHT22;26461;45.630;9.418;2023-02-01T10:08:02;8.80;94.70
40756;DHT22;26461;45.630;9.418;2023-02-01T10:19:13;9.20;95.80
40756;DHT22;26461;45.630;9.418;2023-02-01T10:22:30;9.30;95.70
40756;DHT22;26461;45.630;9.418;2023-02-01T10:26:18;9.40;96.00
40756;DHT22;26461;45.630;9.418;2023-02-01T10:29:36;9.50;95.80
40756;DHT22;26461;45.630;9.418;2023-02-01T10:32:56;9.60;96.20
40756;DHT22;26461;45.630;9.418;2023-02-01T10:36:32;9.70;96.20
40756;DHT22;26461;45.630;9.418;2023-02-01T10:39:49;9.80;96.90
40756;DHT22;26461;45.630;9.418;2023-02-01T10:43:02;9.90;97.20
40756;DHT22;26461;45.630;9.418;2023-02-01T10:46:12;10.10;96.50
40756;DHT22;26461;45.630;9.418;2023-02-01T10:49:33;10.20;96.70
40756;DHT22;26461;45.630;9.418;2023-02-01T10:53:08;10.20;96.50
40756;DHT22;26461;45.630;9.418;2023-02-01T10:56:24;10.30;96.20
40756;DHT22;26461;45.630;9.418;2023-02-01T10:59:35;10.30;96.10
40756;DHT22;26461;45.630;9.418;2023-02-01T11:02:46;10.40;96.10
40756;DHT22;26461;45.630;9.418;2023-02-01T11:05:56;10.50;96.30
40756;DHT22;26461;45.630;9.418;2023-02-01T11:09:10;10.50;96.80
40756;DHT22;26461;45.630;9.418;2023-02-01T11:12:37;10.60;96.80
40756;DHT22;26461;45.630;9.418;2023-02-01T11:15:55;10.60;96.50
40756;DHT22;26461;45.630;9.418;2023-02-01T11:19:06;10.70;96.80
40756;DHT22;26461;45.630;9.418;2023-02-01T11:22:16;10.70;96.80
40756;DHT22;26461;45.630;9.418;2023-02-01T11:25:27;10.80;96.30
40756;DHT22;26461;45.630;9.418;2023-02-01T11:28:40;10.80;96.20
40756;DHT22;26461;45.630;9.418;2023-02-01T11:31:53;10.90;95.80
40756;DHT22;26461;45.630;9.418;2023-02-01T11:35:06;10.90;96.10
40756;DHT22;26461;45.630;9.418;2023-02-01T11:38:25;11.00;95.90
40756;DHT22;26461;45.630;9.418;2023-02-01T11:41:55;11.00;95.70
40756;DHT22;26461;45.630;9.418;2023-02-01T11:45:24;11.00;95.40
40756;DHT22;26461;45.630;9.418;2023-02-01T11:48:34;11.10;95.50
40756;DHT22;26461;45.630;9.418;2023-02-01T11:52:03;11.10;95.50
40756;DHT22;26461;45.630;9.418;2023-02-01T12:09:34;11.40;96.20
40756;DHT22;26461;45.630;9.418;2023-02-01T12:26:56;11.80;97.00
40756;DHT22;26461;45.630;9.418;2023-02-01T12:51:26;12.20;96.00
40756;DHT22;26461;45.630;9.418;2023-02-01T12:54:37;12.10;96.10
40756;DHT22;26461;45.630;9.418;2023-02-01T12:57:56;12.20;96.20
40756;DHT22;26461;45.630;9.418;2023-02-01T13:01:30;12.30;95.70
40756;DHT22;26461;45.630;9.418;2023-02-01T13:08:25;12.40;95.70
40756;DHT22;26461;45.630;9.418;2023-02-01T13:11:38;12.50;95.40
40756;DHT22;26461;45.630;9.418;2023-02-01T13:15:00;12.60;95.50
40756;DHT22;26461;45.630;9.418;2023-02-01T13:18:18;12.70;95.50
40756;DHT22;26461;45.630;9.418;2023-02-01T13:21:33;12.80;95.00
40756;DHT22;26461;45.630;9.418;2023-02-01T13:24:56;12.90;94.80
40756;DHT22;26461;45.630;9.418;2023-02-01T13:35:12;13.20;94.10
40756;DHT22;26461;45.630;9.418;2023-02-01T13:42:12;13.40;93.60
40756;DHT22;26461;45.630;9.418;2023-02-01T13:45:26;13.40;92.00
40756;DHT22;26461;45.630;9.418;2023-02-01T13:48:49;13.50;92.40
40756;DHT22;26461;45.630;9.418;2023-02-01T13:52:00;13.50;91.30
40756;DHT22;26461;45.630;9.418;2023-02-01T13:55:23;13.60;91.40
40756;DHT22;26461;45.630;9.418;2023-02-01T14:01:44;13.70;90.40
40756;DHT22;26461;45.630;9.418;2023-02-01T14:04:54;13.70;90.70
40756;DHT22;26461;45.630;9.418;2023-02-01T14:14:48;14.10;89.10
40756;DHT22;26461;45.630;9.418;2023-02-01T14:17:59;14.10;86.90
40756;DHT22;26461;45.630;9.418;2023-02-01T14:24:31;14.30;86.40
40756;DHT22;26461;45.630;9.418;2023-02-01T14:27:42;14.40;84.50
40756;DHT22;26461;45.630;9.418;2023-02-01T14:30:53;14.50;83.70
40756;DHT22;26461;45.630;9.418;2023-02-01T14:34:13;14.50;82.30
40756;DHT22;26461;45.630;9.418;2023-02-01T14:37:29;14.60;83.70
40756;DHT22;26461;45.630;9.418;2023-02-01T14:40:40;14.70;82.10
40756;DHT22;26461;45.630;9.418;2023-02-01T14:50:37;14.80;80.30
40756;DHT22;26461;45.630;9.418;2023-02-01T14:53:52;14.80;81.30
40756;DHT22;26461;45.630;9.418;2023-02-01T14:57:03;14.80;80.20
40756;DHT22;26461;45.630;9.418;2023-02-01T15:00:21;14.70;77.40
40756;DHT22;26461;45.630;9.418;2023-02-01T15:04:04;14.50;78.40
40756;DHT22;26461;45.630;9.418;2023-02-01T15:07:15;14.50;78.90
40756;DHT22;26461;45.630;9.418;2023-02-01T15:10:27;14.40;80.70
40756;DHT22;26461;45.630;9.418;2023-02-01T15:13:40;14.50;81.90
40756;DHT22;26461;45.630;9.418;2023-02-01T15:16:49;14.60;81.90
40756;DHT22;26461;45.630;9.418;2023-02-01T15:20:21;14.60;83.00
40756;DHT22;26461;45.630;9.418;2023-02-01T15:23:32;14.60;84.30
40756;DHT22;26461;45.630;9.418;2023-02-01T15:26:42;14.60;85.30
40756;DHT22;26461;45.630;9.418;2023-02-01T15:29:52;14.70;86.40
40756;DHT22;26461;45.630;9.418;2023-02-01T15:36:19;14.80;86.20
40756;DHT22;26461;45.630;9.418;2023-02-01T15:39:29;14.70;86.90
40756;DHT22;26461;45.630;9.418;2023-02-01T15:42:58;14.70;87.60
40756;DHT22;26461;45.630;9.418;2023-02-01T15:46:09;14.70;88.30
40756;DHT22;26461;45.630;9.418;2023-02-01T15:49:26;14.60;88.50
40756;DHT22;26461;45.630;9.418;2023-02-01T15:52:36;14.50;89.20
40756;DHT22;26461;45.630;9.418;2023-02-01T15:55:42;14.40;89.50
40756;DHT22;26461;45.630;9.418;2023-02-01T15:58:58;14.40;90.20
40756;DHT22;26461;45.630;9.418;2023-02-01T16:02:33;14.30;90.10
40756;DHT22;26461;45.630;9.418;2023-02-01T16:05:41;14.10;90.20
40756;DHT22;26461;45.630;9.418;2023-02-01T16:08:54;13.90;90.60
40756;DHT22;26461;45.630;9.418;2023-02-01T16:12:01;13.80;91.10
40756;DHT22;26461;45.630;9.418;2023-02-01T16:15:06;13.70;91.20
40756;DHT22;26461;45.630;9.418;2023-02-01T16:18:46;13.60;91.30
40756;DHT22;26461;45.630;9.418;2023-02-01T16:21:53;13.50;91.60
40756;DHT22;26461;45.630;9.418;2023-02-01T16:24:58;13.40;91.80
40756;DHT22;26461;45.630;9.418;2023-02-01T16:28:03;13.30;91.70
40756;DHT22;26461;45.630;9.418;2023-02-01T16:31:17;13.20;91.70
40756;DHT22;26461;45.630;9.418;2023-02-01T16:34:24;13.10;91.80
40756;DHT22;26461;45.630;9.418;2023-02-01T16:37:31;13.10;92.00
40756;DHT22;26461;45.630;9.418;2023-02-01T16:40:41;12.90;92.40
40756;DHT22;26461;45.630;9.418;2023-02-01T16:43:49;12.80;92.60
40756;DHT22;26461;45.630;9.418;2023-02-01T16:46:56;12.70;92.70
40756;DHT22;26461;45.630;9.418;2023-02-01T16:50:04;12.50;92.70
40756;DHT22;26461;45.630;9.418;2023-02-01T16:53:12;12.50;93.20
40756;DHT22;26461;45.630;9.418;2023-02-01T16:56:22;12.30;93.70
40756;DHT22;26461;45.630;9.418;2023-02-01T16:59:28;12.30;93.60
40756;DHT22;26461;45.630;9.418;2023-02-01T17:02:34;12.20;93.70
40756;DHT22;26461;45.630;9.418;2023-02-01T17:05:39;12.20;93.80
40756;DHT22;26461;45.630;9.418;2023-02-01T17:08:47;12.10;93.90
40756;DHT22;26461;45.630;9.418;2023-02-01T17:11:58;12.30;94.40
40756;DHT22;26461;45.630;9.418;2023-02-01T17:15:10;11.80;94.50
40756;DHT22;26461;45.630;9.418;2023-02-01T17:18:16;11.70;94.70
40756;DHT22;26461;45.630;9.418;2023-02-01T17:21:29;11.50;94.80
40756;DHT22;26461;45.630;9.418;2023-02-01T17:24:40;11.50;95.00
40756;DHT22;26461;45.630;9.418;2023-02-01T17:27:49;11.30;95.20
40756;DHT22;26461;45.630;9.418;2023-02-01T17:30:55;11.20;95.30
40756;DHT22;26461;45.630;9.418;2023-02-01T17:34:06;11.10;95.40
40756;DHT22;26461;45.630;9.418;2023-02-01T17:37:26;11.00;95.40
40756;DHT22;26461;45.630;9.418;2023-02-01T17:40:36;11.10;95.40
40756;DHT22;26461;45.630;9.418;2023-02-01T17:43:48;11.00;95.40
40756;DHT22;26461;45.630;9.418;2023-02-01T17:46:54;10.90;95.30
40756;DHT22;26461;45.630;9.418;2023-02-01T17:50:06;10.80;95.20
40756;DHT22;26461;45.630;9.418;2023-02-01T17:53:16;10.80;95.30
40756;DHT22;26461;45.630;9.418;2023-02-01T17:56:24;10.70;95.20
40756;DHT22;26461;45.630;9.418;2023-02-01T17:59:34;10.70;95.20
40756;DHT22;26461;45.630;9.418;2023-02-01T18:02:44;10.60;95.10
40756;DHT22;26461;45.630;9.418;2023-02-01T18:05:56;10.60;95.10
40756;DHT22;26461;45.630;9.418;2023-02-01T18:09:01;10.60;95.00
40756;DHT22;26461;45.630;9.418;2023-02-01T18:12:19;10.60;94.90
40756;DHT22;26461;45.630;9.418;2023-02-01T18:15:25;10.80;94.90
40756;DHT22;26461;45.630;9.418;2023-02-01T18:18:30;10.60;95.10
40756;DHT22;26461;45.630;9.418;2023-02-01T18:21:43;10.40;94.70
40756;DHT22;26461;45.630;9.418;2023-02-01T18:24:53;10.40;94.80
40756;DHT22;26461;45.630;9.418;2023-02-01T18:27:58;10.30;94.70
40756;DHT22;26461;45.630;9.418;2023-02-01T18:31:35;10.30;94.70
40756;DHT22;26461;45.630;9.418;2023-02-01T18:34:46;10.20;94.60
40756;DHT22;26461;45.630;9.418;2023-02-01T18:37:57;10.20;94.60
40756;DHT22;26461;45.630;9.418;2023-02-01T18:41:12;10.10;94.60
40756;DHT22;26461;45.630;9.418;2023-02-01T18:44:24;10.10;94.40
40756;DHT22;26461;45.630;9.418;2023-02-01T18:47:34;10.10;94.30
40756;DHT22;26461;45.630;9.418;2023-02-01T18:50:44;10.10;94.40
40756;DHT22;26461;45.630;9.418;2023-02-01T18:53:55;10.10;94.50
40756;DHT22;26461;45.630;9.418;2023-02-01T18:57:00;10.10;94.50
40756;DHT22;26461;45.630;9.418;2023-02-01T19:00:13;10.20;94.30
40756;DHT22;26461;45.630;9.418;2023-02-01T19:03:24;10.10;94.20
40756;DHT22;26461;45.630;9.418;2023-02-01T19:06:35;10.00;94.10
40756;DHT22;26461;45.630;9.418;2023-02-01T19:09:45;10.00;94.20
40756;DHT22;26461;45.630;9.418;2023-02-01T19:12:55;10.10;94.20
40756;DHT22;26461;45.630;9.418;2023-02-01T19:16:07;9.90;94.00
40756;DHT22;26461;45.630;9.418;2023-02-01T19:19:17;9.90;94.10
40756;DHT22;26461;45.630;9.418;2023-02-01T19:22:27;9.90;93.90
40756;DHT22;26461;45.630;9.418;2023-02-01T19:25:32;10.20;94.00
40756;DHT22;26461;45.630;9.418;2023-02-01T19:28:42;9.90;93.70
40756;DHT22;26461;45.630;9.418;2023-02-01T19:31:51;9.80;93.60
40756;DHT22;26461;45.630;9.418;2023-02-01T19:35:03;9.90;93.40
40756;DHT22;26461;45.630;9.418;2023-02-01T19:38:13;9.90;93.30
40756;DHT22;26461;45.630;9.418;2023-02-01T19:41:19;9.80;92.80
40756;DHT22;26461;45.630;9.418;2023-02-01T19:44:30;9.80;93.00
40756;DHT22;26461;45.630;9.418;2023-02-01T19:47:41;9.70;93.20
40756;DHT22;26461;45.630;9.418;2023-02-01T19:50:51;9.70;93.20
40756;DHT22;26461;45.630;9.418;2023-02-01T19:54:01;9.70;93.30
40756;DHT22;26461;45.630;9.418;2023-02-01T19:57:12;9.70;93.50
40756;DHT22;26461;45.630;9.418;2023-02-01T20:00:23;9.60;93.60
40756;DHT22;26461;45.630;9.418;2023-02-01T20:03:34;9.50;93.80
40756;DHT22;26461;45.630;9.418;2023-02-01T20:06:40;9.50;94.10
40756;DHT22;26461;45.630;9.418;2023-02-01T20:09:45;9.50;94.50
40756;DHT22;26461;45.630;9.418;2023-02-01T20:12:55;9.50;94.90
40756;DHT22;26461;45.630;9.418;2023-02-01T20:16:06;9.30;95.00
40756;DHT22;26461;45.630;9.418;2023-02-01T20:19:16;9.20;94.90
40756;DHT22;26461;45.630;9.418;2023-02-01T20:22:21;9.30;94.70
40756;DHT22;26461;45.630;9.418;2023-02-01T20:25:26;9.10;94.70
40756;DHT22;26461;45.630;9.418;2023-02-01T20:28:32;9.10;94.90
40756;DHT22;26461;45.630;9.418;2023-02-01T20:31:45;9.20;95.00
40756;DHT22;26461;45.630;9.418;2023-02-01T20:34:51;9.00;95.00
40756;DHT22;26461;45.630;9.418;2023-02-01T20:37:58;9.00;95.20
40756;DHT22;26461;45.630;9.418;2023-02-01T20:41:10;9.00;95.20
40756;DHT22;26461;45.630;9.418;2023-02-01T20:44:21;8.90;95.30
40756;DHT22;26461;45.630;9.418;2023-02-01T20:47:31;8.90;95.30
40756;DHT22;26461;45.630;9.418;2023-02-01T20:50:36;8.80;95.50
40756;DHT22;26461;45.630;9.418;2023-02-01T20:53:42;8.80;95.70
40756;DHT22;26461;45.630;9.418;2023-02-01T20:56:52;8.80;96.60
40756;DHT22;26461;45.630;9.418;2023-02-01T20:59:57;8.80;96.90
40756;DHT22;26461;45.630;9.418;2023-02-01T21:03:08;8.80;97.30
40756;DHT22;26461;45.630;9.418;2023-02-01T21:06:17;8.80;97.40
40756;DHT22;26461;45.630;9.418;2023-02-01T21:09:24;8.80;97.90
40756;DHT22;26461;45.630;9.418;2023-02-01T21:12:29;8.80;98.00
40756;DHT22;26461;45.630;9.418;2023-02-01T21:15:34;8.70;98.50
40756;DHT22;26461;45.630;9.418;2023-02-01T21:18:49;8.60;99.00
40756;DHT22;26461;45.630;9.418;2023-02-01T21:21:59;8.70;99.70
40756;DHT22;26461;45.630;9.418;2023-02-01T21:25:10;8.70;99.90
40756;DHT22;26461;45.630;9.418;2023-02-01T21:28:16;8.60;99.90
40756;DHT22;26461;45.630;9.418;2023-02-01T21:31:26;8.70;99.90
40756;DHT22;26461;45.630;9.418;2023-02-01T21:34:36;8.60;99.90
40756;DHT22;26461;45.630;9.418;2023-02-01T21:37:46;8.60;99.90
40756;DHT22;26461;45.630;9.418;2023-02-01T21:40:57;8.60;99.90
40756;DHT22;26461;45.630;9.418;2023-02-01T21:44:25;8.50;99.90
40756;DHT22;26461;45.630;9.418;2023-02-01T21:47:30;8.50;99.90
40756;DHT22;26461;45.630;9.418;2023-02-01T21:50:40;8.50;99.90
40756;DHT22;26461;45.630;9.418;2023-02-01T21:53:45;8.40;99.90
40756;DHT22;26461;45.630;9.418;2023-02-01T21:56:51;8.40;99.90
40756;DHT22;26461;45.630;9.418;2023-02-01T22:00:02;8.40;99.90
40756;DHT22;26461;45.630;9.418;2023-02-01T22:03:13;8.40;99.90
40756;DHT22;26461;45.630;9.418;2023-02-01T22:06:40;8.40;99.90
40756;DHT22;26461;45.630;9.418;2023-02-01T22:09:51;8.30;99.90
40756;DHT22;26461;45.630;9.418;2023-02-01T22:12:56;8.40;99.90
40756;DHT22;26461;45.630;9.418;2023-02-01T22:16:06;8.30;99.90
40756;DHT22;26461;45.630;9.418;2023-02-01T22:19:16;8.30;99.90
40756;DHT22;26461;45.630;9.418;2023-02-01T22:22:26;8.30;99.90
40756;DHT22;26461;45.630;9.418;2023-02-01T22:25:32;8.20;99.90
40756;DHT22;26461;45.630;9.418;2023-02-01T22:28:39;8.20;99.90
40756;DHT22;26461;45.630;9.418;2023-02-01T22:31:49;8.10;99.90
40756;DHT22;26461;45.630;9.418;2023-02-01T22:34:59;8.70;99.90
40756;DHT22;26461;45.630;9.418;2023-02-01T22:38:04;8.00;99.90